New Preston Marble Dale, Connecticut
Current Conditions -  °F | °C
As of 11:15 PM on Tuesday 21 Oct 2014 (Local Time) from KOXC Reporting Station
Broken Clouds Broken Clouds  
Wind Chill: 54°   Ceiling: 8000
Heat Index: 54°   Visibility: 10mi
Dew Point: 46°   Wind: 8mph
Humidity: 77%   Direction: 50°NE
Pressure: 29.94"   Gusts: NA
Location:  41.69°N, 73.35°W
Report Text: KOXC 220315Z 05007KT 10SM FEW012 SCT018 BKN080 12/08 A2994 RMK AO1
Loading
Personal Weather Stations






























Interactive Weather Map New forecast layout! Learn more

10-Day Weather Forecast

Advertisements
Track Severe Weather on mobile